sensor_id;sensor_type;location;lat;lon;timestamp;P1;durP1;ratioP1;P2;durP2;ratioP2
39522;SDS011;25202;51.216;6.806;2024-01-15T00:02:24;4.40;;;0.95;;
39522;SDS011;25202;51.216;6.806;2024-01-15T00:04:49;2.20;;;0.65;;
39522;SDS011;25202;51.216;6.806;2024-01-15T00:07:15;3.80;;;0.77;;
39522;SDS011;25202;51.216;6.806;2024-01-15T00:09:40;1.35;;;0.52;;
39522;SDS011;25202;51.216;6.806;2024-01-15T00:12:06;2.53;;;0.80;;
39522;SDS011;25202;51.216;6.806;2024-01-15T00:14:31;3.22;;;0.75;;
39522;SDS011;25202;51.216;6.806;2024-01-15T00:16:57;3.38;;;0.82;;
39522;SDS011;25202;51.216;6.806;2024-01-15T00:19:22;1.42;;;0.80;;
39522;SDS011;25202;51.216;6.806;2024-01-15T00:21:49;3.42;;;1.00;;
39522;SDS011;25202;51.216;6.806;2024-01-15T00:24:15;2.30;;;0.70;;
39522;SDS011;25202;51.216;6.806;2024-01-15T00:26:40;1.95;;;0.85;;
39522;SDS011;25202;51.216;6.806;2024-01-15T00:29:09;1.50;;;0.63;;
39522;SDS011;25202;51.216;6.806;2024-01-15T00:31:34;1.80;;;0.68;;
39522;SDS011;25202;51.216;6.806;2024-01-15T00:34:00;2.17;;;0.80;;
39522;SDS011;25202;51.216;6.806;2024-01-15T00:36:26;1.80;;;0.70;;
39522;SDS011;25202;51.216;6.806;2024-01-15T00:38:52;2.15;;;0.75;;
39522;SDS011;25202;51.216;6.806;2024-01-15T00:41:18;1.88;;;0.60;;
39522;SDS011;25202;51.216;6.806;2024-01-15T00:43:44;1.40;;;0.50;;
39522;SDS011;25202;51.216;6.806;2024-01-15T00:46:10;1.58;;;0.60;;
39522;SDS011;25202;51.216;6.806;2024-01-15T00:48:35;2.72;;;0.77;;
39522;SDS011;25202;51.216;6.806;2024-01-15T00:51:01;1.55;;;0.70;;
39522;SDS011;25202;51.216;6.806;2024-01-15T00:53:26;2.15;;;0.70;;
39522;SDS011;25202;51.216;6.806;2024-01-15T00:55:52;2.25;;;0.73;;
39522;SDS011;25202;51.216;6.806;2024-01-15T00:58:18;2.85;;;0.80;;
39522;SDS011;25202;51.216;6.806;2024-01-15T01:00:44;1.73;;;0.60;;
39522;SDS011;25202;51.216;6.806;2024-01-15T01:03:09;2.55;;;0.50;;
39522;SDS011;25202;51.216;6.806;2024-01-15T01:05:35;1.10;;;0.52;;
39522;SDS011;25202;51.216;6.806;2024-01-15T01:08:00;0.98;;;0.50;;
39522;SDS011;25202;51.216;6.806;2024-01-15T01:10:26;1.52;;;0.65;;
39522;SDS011;25202;51.216;6.806;2024-01-15T01:12:52;1.88;;;0.70;;
39522;SDS011;25202;51.216;6.806;2024-01-15T01:15:17;1.52;;;0.57;;
39522;SDS011;25202;51.216;6.806;2024-01-15T01:17:43;2.00;;;0.50;;
39522;SDS011;25202;51.216;6.806;2024-01-15T01:20:08;0.75;;;0.38;;
39522;SDS011;25202;51.216;6.806;2024-01-15T01:22:37;1.67;;;0.52;;
39522;SDS011;25202;51.216;6.806;2024-01-15T01:25:02;3.35;;;0.68;;
39522;SDS011;25202;51.216;6.806;2024-01-15T01:27:28;1.02;;;0.60;;
39522;SDS011;25202;51.216;6.806;2024-01-15T01:29:54;1.50;;;0.57;;
39522;SDS011;25202;51.216;6.806;2024-01-15T01:32:19;2.35;;;0.60;;
39522;SDS011;25202;51.216;6.806;2024-01-15T01:34:45;2.17;;;0.70;;
39522;SDS011;25202;51.216;6.806;2024-01-15T01:37:11;1.45;;;0.52;;
39522;SDS011;25202;51.216;6.806;2024-01-15T01:39:40;1.25;;;0.50;;
39522;SDS011;25202;51.216;6.806;2024-01-15T01:42:06;1.25;;;0.50;;
39522;SDS011;25202;51.216;6.806;2024-01-15T01:44:31;1.38;;;0.60;;
39522;SDS011;25202;51.216;6.806;2024-01-15T01:46:57;1.45;;;0.60;;
39522;SDS011;25202;51.216;6.806;2024-01-15T01:49:24;2.47;;;0.73;;
39522;SDS011;25202;51.216;6.806;2024-01-15T01:51:50;1.42;;;0.50;;
39522;SDS011;25202;51.216;6.806;2024-01-15T01:54:15;2.13;;;0.43;;
39522;SDS011;25202;51.216;6.806;2024-01-15T01:56:41;1.30;;;0.60;;
39522;SDS011;25202;51.216;6.806;2024-01-15T01:59:07;1.80;;;0.75;;
39522;SDS011;25202;51.216;6.806;2024-01-15T02:01:34;1.38;;;0.63;;
39522;SDS011;25202;51.216;6.806;2024-01-15T02:04:00;2.65;;;0.80;;
39522;SDS011;25202;51.216;6.806;2024-01-15T02:06:26;1.88;;;0.70;;
39522;SDS011;25202;51.216;6.806;2024-01-15T02:08:52;1.10;;;0.40;;
39522;SDS011;25202;51.216;6.806;2024-01-15T02:11:17;2.47;;;0.57;;
39522;SDS011;25202;51.216;6.806;2024-01-15T02:13:43;2.20;;;0.70;;
39522;SDS011;25202;51.216;6.806;2024-01-15T02:16:08;1.48;;;0.55;;
39522;SDS011;25202;51.216;6.806;2024-01-15T02:18:43;2.25;;;0.60;;
39522;SDS011;25202;51.216;6.806;2024-01-15T02:21:10;1.27;;;0.60;;
39522;SDS011;25202;51.216;6.806;2024-01-15T02:23:36;1.80;;;0.60;;
39522;SDS011;25202;51.216;6.806;2024-01-15T02:26:02;2.67;;;0.70;;
39522;SDS011;25202;51.216;6.806;2024-01-15T02:28:28;1.00;;;0.47;;
39522;SDS011;25202;51.216;6.806;2024-01-15T02:30:54;2.03;;;0.50;;
39522;SDS011;25202;51.216;6.806;2024-01-15T02:33:19;2.05;;;0.60;;
39522;SDS011;25202;51.216;6.806;2024-01-15T02:35:45;2.80;;;0.77;;
39522;SDS011;25202;51.216;6.806;2024-01-15T02:38:11;2.45;;;0.60;;
39522;SDS011;25202;51.216;6.806;2024-01-15T02:40:37;0.88;;;0.32;;
39522;SDS011;25202;51.216;6.806;2024-01-15T02:43:03;2.83;;;0.70;;
39522;SDS011;25202;51.216;6.806;2024-01-15T02:45:28;2.40;;;0.50;;
39522;SDS011;25202;51.216;6.806;2024-01-15T02:47:54;1.85;;;0.73;;
39522;SDS011;25202;51.216;6.806;2024-01-15T02:50:20;2.72;;;0.80;;
39522;SDS011;25202;51.216;6.806;2024-01-15T02:52:45;2.00;;;0.73;;
39522;SDS011;25202;51.216;6.806;2024-01-15T02:55:11;2.17;;;0.77;;
39522;SDS011;25202;51.216;6.806;2024-01-15T02:57:36;2.22;;;0.68;;
39522;SDS011;25202;51.216;6.806;2024-01-15T03:00:02;1.83;;;0.40;;
39522;SDS011;25202;51.216;6.806;2024-01-15T03:02:28;2.88;;;0.88;;
39522;SDS011;25202;51.216;6.806;2024-01-15T03:04:56;1.33;;;0.60;;
39522;SDS011;25202;51.216;6.806;2024-01-15T03:07:22;1.65;;;0.70;;
39522;SDS011;25202;51.216;6.806;2024-01-15T03:09:48;1.98;;;0.73;;
39522;SDS011;25202;51.216;6.806;2024-01-15T03:12:13;1.42;;;0.50;;
39522;SDS011;25202;51.216;6.806;2024-01-15T03:14:39;1.55;;;0.60;;
39522;SDS011;25202;51.216;6.806;2024-01-15T03:17:04;2.55;;;0.70;;
39522;SDS011;25202;51.216;6.806;2024-01-15T03:19:30;1.90;;;0.52;;
39522;SDS011;25202;51.216;6.806;2024-01-15T03:21:56;1.27;;;0.55;;
39522;SDS011;25202;51.216;6.806;2024-01-15T03:24:21;1.95;;;0.55;;
39522;SDS011;25202;51.216;6.806;2024-01-15T03:26:47;2.40;;;0.70;;
39522;SDS011;25202;51.216;6.806;2024-01-15T03:29:12;2.10;;;0.65;;
39522;SDS011;25202;51.216;6.806;2024-01-15T03:31:38;2.72;;;0.70;;
39522;SDS011;25202;51.216;6.806;2024-01-15T03:34:03;1.80;;;0.70;;
39522;SDS011;25202;51.216;6.806;2024-01-15T03:36:29;2.40;;;0.70;;
39522;SDS011;25202;51.216;6.806;2024-01-15T03:38:54;0.95;;;0.43;;
39522;SDS011;25202;51.216;6.806;2024-01-15T03:41:20;2.50;;;0.73;;
39522;SDS011;25202;51.216;6.806;2024-01-15T03:43:45;1.88;;;0.80;;
39522;SDS011;25202;51.216;6.806;2024-01-15T03:46:10;3.22;;;0.63;;
39522;SDS011;25202;51.216;6.806;2024-01-15T03:48:36;2.00;;;0.73;;
39522;SDS011;25202;51.216;6.806;2024-01-15T03:51:01;1.40;;;0.50;;
39522;SDS011;25202;51.216;6.806;2024-01-15T03:53:27;2.65;;;0.55;;
39522;SDS011;25202;51.216;6.806;2024-01-15T03:55:52;2.42;;;0.63;;
39522;SDS011;25202;51.216;6.806;2024-01-15T03:58:18;3.28;;;0.90;;
39522;SDS011;25202;51.216;6.806;2024-01-15T04:00:43;2.00;;;0.70;;
39522;SDS011;25202;51.216;6.806;2024-01-15T04:03:09;2.58;;;0.75;;
39522;SDS011;25202;51.216;6.806;2024-01-15T04:05:34;1.90;;;0.90;;
39522;SDS011;25202;51.216;6.806;2024-01-15T04:08:00;2.50;;;0.90;;
39522;SDS011;25202;51.216;6.806;2024-01-15T04:10:26;2.42;;;0.63;;
39522;SDS011;25202;51.216;6.806;2024-01-15T04:12:52;3.00;;;0.70;;
39522;SDS011;25202;51.216;6.806;2024-01-15T04:15:17;1.58;;;0.52;;
39522;SDS011;25202;51.216;6.806;2024-01-15T04:17:43;2.38;;;0.93;;
39522;SDS011;25202;51.216;6.806;2024-01-15T04:20:08;1.98;;;0.63;;
39522;SDS011;25202;51.216;6.806;2024-01-15T04:22:35;3.15;;;1.00;;
39522;SDS011;25202;51.216;6.806;2024-01-15T04:25:00;2.17;;;0.80;;
39522;SDS011;25202;51.216;6.806;2024-01-15T04:27:26;2.75;;;0.80;;
39522;SDS011;25202;51.216;6.806;2024-01-15T04:29:51;1.23;;;0.60;;
39522;SDS011;25202;51.216;6.806;2024-01-15T04:32:18;1.15;;;0.45;;
39522;SDS011;25202;51.216;6.806;2024-01-15T04:34:43;2.63;;;0.90;;
39522;SDS011;25202;51.216;6.806;2024-01-15T04:37:09;1.40;;;0.60;;
39522;SDS011;25202;51.216;6.806;2024-01-15T04:39:35;1.63;;;0.60;;
39522;SDS011;25202;51.216;6.806;2024-01-15T04:42:01;1.13;;;0.50;;
39522;SDS011;25202;51.216;6.806;2024-01-15T04:44:26;1.58;;;0.75;;
39522;SDS011;25202;51.216;6.806;2024-01-15T04:46:52;1.70;;;0.70;;
39522;SDS011;25202;51.216;6.806;2024-01-15T04:49:17;1.98;;;0.57;;
39522;SDS011;25202;51.216;6.806;2024-01-15T04:51:43;3.78;;;0.85;;
39522;SDS011;25202;51.216;6.806;2024-01-15T04:54:08;2.10;;;0.60;;
39522;SDS011;25202;51.216;6.806;2024-01-15T04:56:34;2.85;;;0.82;;
39522;SDS011;25202;51.216;6.806;2024-01-15T04:58:59;1.60;;;0.70;;
39522;SDS011;25202;51.216;6.806;2024-01-15T05:01:25;2.88;;;0.80;;
39522;SDS011;25202;51.216;6.806;2024-01-15T05:03:50;2.00;;;0.60;;
39522;SDS011;25202;51.216;6.806;2024-01-15T05:06:15;1.90;;;0.70;;
39522;SDS011;25202;51.216;6.806;2024-01-15T05:08:41;1.67;;;0.68;;
39522;SDS011;25202;51.216;6.806;2024-01-15T05:11:06;2.92;;;0.60;;
39522;SDS011;25202;51.216;6.806;2024-01-15T05:13:32;1.70;;;0.65;;
39522;SDS011;25202;51.216;6.806;2024-01-15T05:15:57;2.35;;;0.73;;
39522;SDS011;25202;51.216;6.806;2024-01-15T05:18:23;2.53;;;0.80;;
39522;SDS011;25202;51.216;6.806;2024-01-15T05:20:48;1.50;;;0.65;;
39522;SDS011;25202;51.216;6.806;2024-01-15T05:23:14;1.73;;;0.47;;
39522;SDS011;25202;51.216;6.806;2024-01-15T05:25:39;0.90;;;0.35;;
39522;SDS011;25202;51.216;6.806;2024-01-15T05:28:05;2.45;;;0.60;;
39522;SDS011;25202;51.216;6.806;2024-01-15T05:30:31;1.10;;;0.50;;
39522;SDS011;25202;51.216;6.806;2024-01-15T05:32:56;0.98;;;0.45;;
39522;SDS011;25202;51.216;6.806;2024-01-15T05:35:22;1.65;;;0.60;;
39522;SDS011;25202;51.216;6.806;2024-01-15T05:37:48;2.47;;;0.60;;
39522;SDS011;25202;51.216;6.806;2024-01-15T05:40:13;1.63;;;0.43;;
39522;SDS011;25202;51.216;6.806;2024-01-15T05:42:39;2.03;;;0.47;;
39522;SDS011;25202;51.216;6.806;2024-01-15T05:45:05;1.60;;;0.50;;
39522;SDS011;25202;51.216;6.806;2024-01-15T05:47:31;1.02;;;0.47;;
39522;SDS011;25202;51.216;6.806;2024-01-15T05:49:56;2.10;;;0.57;;
39522;SDS011;25202;51.216;6.806;2024-01-15T05:52:22;2.50;;;0.80;;
39522;SDS011;25202;51.216;6.806;2024-01-15T05:54:48;2.25;;;0.60;;
39522;SDS011;25202;51.216;6.806;2024-01-15T05:57:16;2.08;;;0.40;;
39522;SDS011;25202;51.216;6.806;2024-01-15T05:59:43;1.30;;;0.40;;
39522;SDS011;25202;51.216;6.806;2024-01-15T06:02:09;1.13;;;0.50;;
39522;SDS011;25202;51.216;6.806;2024-01-15T06:04:35;0.60;;;0.25;;
39522;SDS011;25202;51.216;6.806;2024-01-15T06:07:01;1.98;;;0.50;;
39522;SDS011;25202;51.216;6.806;2024-01-15T06:09:26;1.48;;;0.47;;
39522;SDS011;25202;51.216;6.806;2024-01-15T06:11:53;3.25;;;0.80;;
39522;SDS011;25202;51.216;6.806;2024-01-15T06:14:18;0.73;;;0.47;;
39522;SDS011;25202;51.216;6.806;2024-01-15T06:16:44;0.80;;;0.40;;
39522;SDS011;25202;51.216;6.806;2024-01-15T06:19:09;1.77;;;0.57;;
39522;SDS011;25202;51.216;6.806;2024-01-15T06:21:35;0.85;;;0.50;;
39522;SDS011;25202;51.216;6.806;2024-01-15T06:24:00;1.50;;;0.40;;
39522;SDS011;25202;51.216;6.806;2024-01-15T06:26:26;0.75;;;0.50;;
39522;SDS011;25202;51.216;6.806;2024-01-15T06:28:51;2.33;;;0.63;;
39522;SDS011;25202;51.216;6.806;2024-01-15T06:31:17;2.58;;;0.60;;
39522;SDS011;25202;51.216;6.806;2024-01-15T06:33:42;1.60;;;0.60;;
39522;SDS011;25202;51.216;6.806;2024-01-15T06:36:08;1.85;;;0.68;;
39522;SDS011;25202;51.216;6.806;2024-01-15T06:38:33;1.98;;;0.50;;
39522;SDS011;25202;51.216;6.806;2024-01-15T06:40:59;1.73;;;0.40;;
39522;SDS011;25202;51.216;6.806;2024-01-15T06:43:25;2.67;;;0.57;;
39522;SDS011;25202;51.216;6.806;2024-01-15T06:45:50;2.28;;;0.50;;
39522;SDS011;25202;51.216;6.806;2024-01-15T06:48:16;0.80;;;0.40;;
39522;SDS011;25202;51.216;6.806;2024-01-15T06:50:42;1.65;;;0.55;;
39522;SDS011;25202;51.216;6.806;2024-01-15T06:53:10;2.20;;;0.68;;
39522;SDS011;25202;51.216;6.806;2024-01-15T06:55:36;3.15;;;0.70;;
39522;SDS011;25202;51.216;6.806;2024-01-15T06:58:02;1.25;;;0.50;;
39522;SDS011;25202;51.216;6.806;2024-01-15T07:00:28;2.60;;;0.63;;
39522;SDS011;25202;51.216;6.806;2024-01-15T07:02:54;2.15;;;0.60;;
39522;SDS011;25202;51.216;6.806;2024-01-15T07:05:20;2.00;;;0.60;;
39522;SDS011;25202;51.216;6.806;2024-01-15T07:07:46;3.15;;;0.70;;
39522;SDS011;25202;51.216;6.806;2024-01-15T07:10:12;1.23;;;0.50;;
39522;SDS011;25202;51.216;6.806;2024-01-15T07:12:38;2.53;;;0.50;;
39522;SDS011;25202;51.216;6.806;2024-01-15T07:15:04;3.03;;;0.60;;
39522;SDS011;25202;51.216;6.806;2024-01-15T07:17:32;1.75;;;0.60;;
39522;SDS011;25202;51.216;6.806;2024-01-15T07:19:57;2.10;;;0.60;;
39522;SDS011;25202;51.216;6.806;2024-01-15T07:22:23;2.53;;;0.88;;
39522;SDS011;25202;51.216;6.806;2024-01-15T07:24:48;1.65;;;0.70;;
39522;SDS011;25202;51.216;6.806;2024-01-15T07:27:13;1.42;;;0.60;;
39522;SDS011;25202;51.216;6.806;2024-01-15T07:29:39;2.13;;;0.63;;
39522;SDS011;25202;51.216;6.806;2024-01-15T07:32:05;2.78;;;0.90;;
39522;SDS011;25202;51.216;6.806;2024-01-15T07:34:30;2.33;;;0.50;;
39522;SDS011;25202;51.216;6.806;2024-01-15T07:36:56;1.05;;;0.50;;
39522;SDS011;25202;51.216;6.806;2024-01-15T07:39:22;2.03;;;0.68;;
39522;SDS011;25202;51.216;6.806;2024-01-15T07:41:49;2.28;;;0.82;;
39522;SDS011;25202;51.216;6.806;2024-01-15T07:44:16;1.63;;;0.50;;
39522;SDS011;25202;51.216;6.806;2024-01-15T07:46:45;1.23;;;0.60;;
39522;SDS011;25202;51.216;6.806;2024-01-15T07:49:13;0.80;;;0.38;;
39522;SDS011;25202;51.216;6.806;2024-01-15T07:51:39;2.05;;;0.47;;
39522;SDS011;25202;51.216;6.806;2024-01-15T07:54:08;2.55;;;0.77;;
39522;SDS011;25202;51.216;6.806;2024-01-15T07:56:34;2.38;;;0.60;;
39522;SDS011;25202;51.216;6.806;2024-01-15T07:59:00;0.98;;;0.47;;
39522;SDS011;25202;51.216;6.806;2024-01-15T08:01:26;1.08;;;0.50;;
39522;SDS011;25202;51.216;6.806;2024-01-15T08:03:51;1.58;;;0.68;;
39522;SDS011;25202;51.216;6.806;2024-01-15T08:06:18;2.83;;;0.73;;
39522;SDS011;25202;51.216;6.806;2024-01-15T08:08:43;1.25;;;0.50;;
39522;SDS011;25202;51.216;6.806;2024-01-15T08:11:09;1.45;;;0.60;;
39522;SDS011;25202;51.216;6.806;2024-01-15T08:13:34;1.90;;;0.60;;
39522;SDS011;25202;51.216;6.806;2024-01-15T08:15:59;2.47;;;0.73;;
39522;SDS011;25202;51.216;6.806;2024-01-15T08:18:25;1.98;;;0.68;;
39522;SDS011;25202;51.216;6.806;2024-01-15T08:20:50;1.30;;;0.65;;
39522;SDS011;25202;51.216;6.806;2024-01-15T08:23:17;1.92;;;0.47;;
39522;SDS011;25202;51.216;6.806;2024-01-15T08:25:42;2.80;;;0.63;;
39522;SDS011;25202;51.216;6.806;2024-01-15T08:28:08;2.33;;;0.80;;
39522;SDS011;25202;51.216;6.806;2024-01-15T08:30:33;3.22;;;0.63;;
39522;SDS011;25202;51.216;6.806;2024-01-15T08:32:59;2.33;;;0.57;;
39522;SDS011;25202;51.216;6.806;2024-01-15T08:35:25;3.95;;;0.68;;
39522;SDS011;25202;51.216;6.806;2024-01-15T08:37:53;4.15;;;0.85;;
39522;SDS011;25202;51.216;6.806;2024-01-15T08:40:19;5.00;;;0.60;;
39522;SDS011;25202;51.216;6.806;2024-01-15T08:42:45;2.53;;;0.70;;
39522;SDS011;25202;51.216;6.806;2024-01-15T08:45:13;8.35;;;1.00;;
39522;SDS011;25202;51.216;6.806;2024-01-15T08:47:38;4.15;;;0.70;;
39522;SDS011;25202;51.216;6.806;2024-01-15T08:50:04;3.65;;;1.05;;
39522;SDS011;25202;51.216;6.806;2024-01-15T08:52:30;3.30;;;0.52;;
39522;SDS011;25202;51.216;6.806;2024-01-15T08:54:56;4.05;;;1.10;;
39522;SDS011;25202;51.216;6.806;2024-01-15T08:57:22;3.08;;;0.80;;
39522;SDS011;25202;51.216;6.806;2024-01-15T08:59:50;4.45;;;0.57;;
39522;SDS011;25202;51.216;6.806;2024-01-15T09:02:16;1.75;;;0.45;;
39522;SDS011;25202;51.216;6.806;2024-01-15T09:04:41;1.95;;;0.55;;
39522;SDS011;25202;51.216;6.806;2024-01-15T09:07:07;2.17;;;0.70;;
39522;SDS011;25202;51.216;6.806;2024-01-15T09:09:33;3.85;;;0.80;;
39522;SDS011;25202;51.216;6.806;2024-01-15T09:11:59;3.97;;;0.70;;
39522;SDS011;25202;51.216;6.806;2024-01-15T09:14:24;1.70;;;0.70;;
39522;SDS011;25202;51.216;6.806;2024-01-15T09:16:52;2.08;;;0.40;;
39522;SDS011;25202;51.216;6.806;2024-01-15T09:19:18;3.03;;;0.73;;
39522;SDS011;25202;51.216;6.806;2024-01-15T09:21:43;3.25;;;0.90;;
39522;SDS011;25202;51.216;6.806;2024-01-15T09:24:09;2.97;;;0.70;;
39522;SDS011;25202;51.216;6.806;2024-01-15T09:26:34;3.00;;;0.65;;
39522;SDS011;25202;51.216;6.806;2024-01-15T09:29:00;1.58;;;0.60;;
39522;SDS011;25202;51.216;6.806;2024-01-15T09:31:26;3.60;;;0.80;;
39522;SDS011;25202;51.216;6.806;2024-01-15T09:33:52;3.10;;;0.70;;
39522;SDS011;25202;51.216;6.806;2024-01-15T09:36:21;1.83;;;0.60;;
39522;SDS011;25202;51.216;6.806;2024-01-15T09:38:47;3.38;;;0.68;;
39522;SDS011;25202;51.216;6.806;2024-01-15T09:41:13;1.90;;;0.70;;
39522;SDS011;25202;51.216;6.806;2024-01-15T09:43:38;2.42;;;0.75;;
39522;SDS011;25202;51.216;6.806;2024-01-15T09:46:04;2.00;;;0.50;;
39522;SDS011;25202;51.216;6.806;2024-01-15T09:48:29;1.60;;;0.57;;
39522;SDS011;25202;51.216;6.806;2024-01-15T09:50:55;2.83;;;0.75;;
39522;SDS011;25202;51.216;6.806;2024-01-15T09:53:23;1.98;;;0.60;;
39522;SDS011;25202;51.216;6.806;2024-01-15T09:55:50;1.98;;;0.65;;
39522;SDS011;25202;51.216;6.806;2024-01-15T09:58:18;2.63;;;0.60;;
39522;SDS011;25202;51.216;6.806;2024-01-15T10:00:44;1.40;;;0.63;;
39522;SDS011;25202;51.216;6.806;2024-01-15T10:03:09;4.60;;;0.70;;
39522;SDS011;25202;51.216;6.806;2024-01-15T10:05:36;4.25;;;0.80;;
39522;SDS011;25202;51.216;6.806;2024-01-15T10:08:02;2.92;;;0.50;;
39522;SDS011;25202;51.216;6.806;2024-01-15T10:10:29;2.45;;;0.50;;
39522;SDS011;25202;51.216;6.806;2024-01-15T10:12:55;0.82;;;0.50;;
39522;SDS011;25202;51.216;6.806;2024-01-15T10:15:23;2.97;;;0.60;;
39522;SDS011;25202;51.216;6.806;2024-01-15T10:17:49;2.40;;;0.60;;
39522;SDS011;25202;51.216;6.806;2024-01-15T10:20:15;2.85;;;0.60;;
39522;SDS011;25202;51.216;6.806;2024-01-15T10:22:41;2.10;;;0.50;;
39522;SDS011;25202;51.216;6.806;2024-01-15T10:25:09;5.38;;;0.70;;
39522;SDS011;25202;51.216;6.806;2024-01-15T10:27:35;3.72;;;0.80;;
39522;SDS011;25202;51.216;6.806;2024-01-15T10:30:01;1.63;;;0.50;;
39522;SDS011;25202;51.216;6.806;2024-01-15T10:32:28;2.33;;;0.68;;
39522;SDS011;25202;51.216;6.806;2024-01-15T10:34:53;1.52;;;0.70;;
39522;SDS011;25202;51.216;6.806;2024-01-15T10:37:19;1.63;;;0.40;;
39522;SDS011;25202;51.216;6.806;2024-01-15T10:39:46;3.15;;;0.47;;
39522;SDS011;25202;51.216;6.806;2024-01-15T10:42:11;1.58;;;0.50;;
39522;SDS011;25202;51.216;6.806;2024-01-15T10:44:37;2.35;;;0.60;;
39522;SDS011;25202;51.216;6.806;2024-01-15T10:47:02;2.83;;;0.60;;
39522;SDS011;25202;51.216;6.806;2024-01-15T10:49:29;1.75;;;0.30;;
39522;SDS011;25202;51.216;6.806;2024-01-15T10:51:55;1.73;;;0.50;;
39522;SDS011;25202;51.216;6.806;2024-01-15T10:54:21;5.25;;;0.65;;
39522;SDS011;25202;51.216;6.806;2024-01-15T10:56:48;5.13;;;1.00;;
39522;SDS011;25202;51.216;6.806;2024-01-15T10:59:15;1.83;;;0.50;;
39522;SDS011;25202;51.216;6.806;2024-01-15T11:01:41;2.38;;;0.70;;
39522;SDS011;25202;51.216;6.806;2024-01-15T11:04:07;3.38;;;0.82;;
39522;SDS011;25202;51.216;6.806;2024-01-15T11:06:43;3.88;;;0.50;;
39522;SDS011;25202;51.216;6.806;2024-01-15T11:09:10;6.05;;;0.70;;
39522;SDS011;25202;51.216;6.806;2024-01-15T11:11:35;3.53;;;0.80;;
39522;SDS011;25202;51.216;6.806;2024-01-15T11:14:02;4.88;;;0.80;;
39522;SDS011;25202;51.216;6.806;2024-01-15T11:16:52;3.17;;;0.60;;
39522;SDS011;25202;51.216;6.806;2024-01-15T11:21:46;1.38;;;0.52;;
39522;SDS011;25202;51.216;6.806;2024-01-15T11:24:12;2.30;;;0.68;;
39522;SDS011;25202;51.216;6.806;2024-01-15T11:27:01;1.85;;;0.70;;
39522;SDS011;25202;51.216;6.806;2024-01-15T11:34:20;2.70;;;0.50;;
39522;SDS011;25202;51.216;6.806;2024-01-15T11:41:56;1.00;;;0.40;;
39522;SDS011;25202;51.216;6.806;2024-01-15T11:44:22;3.30;;;0.45;;
39522;SDS011;25202;51.216;6.806;2024-01-15T11:46:58;2.58;;;0.57;;
39522;SDS011;25202;51.216;6.806;2024-01-15T11:50:10;3.10;;;0.68;;
39522;SDS011;25202;51.216;6.806;2024-01-15T11:52:36;5.35;;;0.70;;
39522;SDS011;25202;51.216;6.806;2024-01-15T11:55:17;2.65;;;0.68;;
39522;SDS011;25202;51.216;6.806;2024-01-15T11:58:03;2.55;;;0.40;;
39522;SDS011;25202;51.216;6.806;2024-01-15T12:00:35;0.57;;;0.38;;
39522;SDS011;25202;51.216;6.806;2024-01-15T12:03:04;3.47;;;0.40;;
39522;SDS011;25202;51.216;6.806;2024-01-15T12:05:30;2.15;;;0.22;;
39522;SDS011;25202;51.216;6.806;2024-01-15T12:07:55;1.75;;;0.50;;
39522;SDS011;25202;51.216;6.806;2024-01-15T12:10:21;7.18;;;0.70;;
39522;SDS011;25202;51.216;6.806;2024-01-15T12:15:26;3.28;;;0.50;;
39522;SDS011;25202;51.216;6.806;2024-01-15T12:17:57;1.63;;;0.50;;
39522;SDS011;25202;51.216;6.806;2024-01-15T12:20:24;1.67;;;0.45;;
39522;SDS011;25202;51.216;6.806;2024-01-15T12:22:54;2.78;;;0.40;;
39522;SDS011;25202;51.216;6.806;2024-01-15T12:25:25;2.30;;;0.40;;
39522;SDS011;25202;51.216;6.806;2024-01-15T12:27:53;1.77;;;0.60;;
39522;SDS011;25202;51.216;6.806;2024-01-15T12:30:19;3.00;;;0.60;;
39522;SDS011;25202;51.216;6.806;2024-01-15T12:32:44;1.50;;;0.52;;
39522;SDS011;25202;51.216;6.806;2024-01-15T12:35:11;1.70;;;0.50;;
39522;SDS011;25202;51.216;6.806;2024-01-15T12:37:37;1.20;;;0.57;;
39522;SDS011;25202;51.216;6.806;2024-01-15T12:40:04;2.72;;;0.57;;
39522;SDS011;25202;51.216;6.806;2024-01-15T12:42:39;4.40;;;0.88;;
39522;SDS011;25202;51.216;6.806;2024-01-15T12:45:05;0.98;;;0.40;;
39522;SDS011;25202;51.216;6.806;2024-01-15T12:47:31;2.10;;;0.45;;
39522;SDS011;25202;51.216;6.806;2024-01-15T12:49:57;2.58;;;0.40;;
39522;SDS011;25202;51.216;6.806;2024-01-15T12:52:26;1.92;;;0.47;;
39522;SDS011;25202;51.216;6.806;2024-01-15T12:54:52;1.50;;;0.40;;
39522;SDS011;25202;51.216;6.806;2024-01-15T12:57:17;3.15;;;0.38;;
39522;SDS011;25202;51.216;6.806;2024-01-15T12:59:43;1.40;;;0.30;;
39522;SDS011;25202;51.216;6.806;2024-01-15T13:02:13;1.13;;;0.30;;
39522;SDS011;25202;51.216;6.806;2024-01-15T13:04:39;0.80;;;0.40;;
39522;SDS011;25202;51.216;6.806;2024-01-15T13:07:08;1.83;;;0.50;;
39522;SDS011;25202;51.216;6.806;2024-01-15T13:09:33;2.67;;;0.60;;
39522;SDS011;25202;51.216;6.806;2024-01-15T13:12:00;1.83;;;0.50;;
39522;SDS011;25202;51.216;6.806;2024-01-15T13:14:26;2.85;;;0.73;;
39522;SDS011;25202;51.216;6.806;2024-01-15T13:16:52;2.05;;;0.35;;
39522;SDS011;25202;51.216;6.806;2024-01-15T13:19:19;0.90;;;0.40;;
39522;SDS011;25202;51.216;6.806;2024-01-15T13:21:44;1.15;;;0.47;;
39522;SDS011;25202;51.216;6.806;2024-01-15T13:24:10;0.65;;;0.32;;
39522;SDS011;25202;51.216;6.806;2024-01-15T13:26:36;3.35;;;0.50;;
39522;SDS011;25202;51.216;6.806;2024-01-15T13:29:04;7.88;;;0.50;;
39522;SDS011;25202;51.216;6.806;2024-01-15T13:31:30;2.63;;;0.50;;
39522;SDS011;25202;51.216;6.806;2024-01-15T13:33:56;3.28;;;0.63;;
39522;SDS011;25202;51.216;6.806;2024-01-15T13:36:23;2.67;;;0.60;;
39522;SDS011;25202;51.216;6.806;2024-01-15T13:38:49;7.50;;;0.77;;
39522;SDS011;25202;51.216;6.806;2024-01-15T13:41:15;2.15;;;0.60;;
39522;SDS011;25202;51.216;6.806;2024-01-15T13:43:41;4.45;;;0.70;;
39522;SDS011;25202;51.216;6.806;2024-01-15T13:46:07;2.00;;;0.55;;
39522;SDS011;25202;51.216;6.806;2024-01-15T13:48:32;1.67;;;0.52;;
39522;SDS011;25202;51.216;6.806;2024-01-15T13:50:58;3.40;;;0.70;;
39522;SDS011;25202;51.216;6.806;2024-01-15T13:53:24;1.85;;;0.40;;
39522;SDS011;25202;51.216;6.806;2024-01-15T13:55:50;2.63;;;0.70;;
39522;SDS011;25202;51.216;6.806;2024-01-15T13:58:15;5.25;;;0.80;;
39522;SDS011;25202;51.216;6.806;2024-01-15T14:00:43;1.33;;;0.60;;
39522;SDS011;25202;51.216;6.806;2024-01-15T14:03:09;2.60;;;0.55;;
39522;SDS011;25202;51.216;6.806;2024-01-15T14:05:34;10.75;;;3.28;;
39522;SDS011;25202;51.216;6.806;2024-01-15T14:08:00;16.20;;;7.65;;
39522;SDS011;25202;51.216;6.806;2024-01-15T14:10:25;18.30;;;6.68;;
39522;SDS011;25202;51.216;6.806;2024-01-15T14:12:51;16.88;;;6.63;;
39522;SDS011;25202;51.216;6.806;2024-01-15T14:15:16;16.05;;;5.75;;
39522;SDS011;25202;51.216;6.806;2024-01-15T14:17:42;39.45;;;14.82;;
39522;SDS011;25202;51.216;6.806;2024-01-15T14:20:07;52.90;;;21.13;;
39522;SDS011;25202;51.216;6.806;2024-01-15T14:22:34;55.28;;;21.35;;
39522;SDS011;25202;51.216;6.806;2024-01-15T14:25:00;45.13;;;18.02;;
39522;SDS011;25202;51.216;6.806;2024-01-15T14:27:26;46.78;;;17.73;;
39522;SDS011;25202;51.216;6.806;2024-01-15T14:29:51;43.30;;;16.13;;
39522;SDS011;25202;51.216;6.806;2024-01-15T14:32:16;32.83;;;13.35;;
39522;SDS011;25202;51.216;6.806;2024-01-15T14:34:42;46.55;;;19.23;;
39522;SDS011;25202;51.216;6.806;2024-01-15T14:37:08;39.72;;;16.42;;
39522;SDS011;25202;51.216;6.806;2024-01-15T14:39:34;135.35;;;56.40;;
39522;SDS011;25202;51.216;6.806;2024-01-15T14:41:59;58.13;;;23.83;;
39522;SDS011;25202;51.216;6.806;2024-01-15T14:44:25;47.20;;;19.58;;
39522;SDS011;25202;51.216;6.806;2024-01-15T14:46:51;54.85;;;17.27;;
39522;SDS011;25202;51.216;6.806;2024-01-15T14:49:17;38.05;;;13.98;;
39522;SDS011;25202;51.216;6.806;2024-01-15T14:51:43;32.50;;;12.38;;
39522;SDS011;25202;51.216;6.806;2024-01-15T14:54:09;28.52;;;11.48;;
39522;SDS011;25202;51.216;6.806;2024-01-15T14:56:35;26.08;;;9.70;;